AEE56N LCLK-LGAV
Flight info
| Callsign | AEE56N |
|---|---|
| Flight time | 1h 28m |
| Altitude | 36000 |
| Route | PHA M31 GENOS DCT PEDER DCT EVENO UM601 RDS UL995 VARIX |
| Aircraft | A320/M-SDE3FGHIRWY/LB1 |
Departure
| Time | 2026-05-05 09:23 |
|---|---|
| Airport | Larnaca International Airport (LCLK) |
Arrival
| Time | 2026-05-05 10:51 |
|---|---|
| Airport | Athens Eleftherios Venizelos International Airport (LGAV) |
| Time | Latitude | Longitude | Altitude | Speed | Heading |
|---|---|---|---|---|---|
| 2026-05-05 09:02 | 34.86996 | 33.61110 | 20 ft | 0 kts | 225° |
| 2026-05-05 09:13 | 34.86999 | 33.61113 | 20 ft | 3 kts | 225° |
| 2026-05-05 09:13 | 34.87018 | 33.61136 | 20 ft | 4 kts | 229° |
| 2026-05-05 09:13 | 34.87030 | 33.61159 | 20 ft | 1 kts | 252° |
| 2026-05-05 09:14 | 34.87039 | 33.61181 | 22 ft | 4 kts | 197° |
| 2026-05-05 09:14 | 34.87056 | 33.61174 | 22 ft | 4 kts | 135° |
| 2026-05-05 09:14 | 34.87065 | 33.61163 | 20 ft | 0 kts | 135° |
| 2026-05-05 09:16 | 34.87064 | 33.61165 | 21 ft | 1 kts | 135° |
| 2026-05-05 09:16 | 34.87052 | 33.61178 | 23 ft | 3 kts | 135° |
| 2026-05-05 09:17 | 34.87030 | 33.61206 | 22 ft | 6 kts | 135° |
| 2026-05-05 09:17 | 34.86997 | 33.61245 | 20 ft | 7 kts | 135° |
| 2026-05-05 09:17 | 34.86955 | 33.61295 | 20 ft | 9 kts | 135° |
| 2026-05-05 09:17 | 34.86901 | 33.61359 | 17 ft | 10 kts | 135° |
| 2026-05-05 09:18 | 34.86886 | 33.61431 | 18 ft | 10 kts | 62° |
| 2026-05-05 09:18 | 34.86937 | 33.61498 | 18 ft | 12 kts | 45° |
| 2026-05-05 09:18 | 34.87002 | 33.61577 | 19 ft | 14 kts | 44° |
| 2026-05-05 09:18 | 34.87072 | 33.61661 | 21 ft | 14 kts | 44° |
| 2026-05-05 09:19 | 34.87147 | 33.61754 | 21 ft | 17 kts | 45° |
| 2026-05-05 09:19 | 34.87237 | 33.61862 | 21 ft | 19 kts | 45° |
| 2026-05-05 09:19 | 34.87305 | 33.61949 | 21 ft | 15 kts | 44° |
| 2026-05-05 09:19 | 34.87390 | 33.62050 | 19 ft | 19 kts | 46° |
| 2026-05-05 09:20 | 34.87469 | 33.62148 | 20 ft | 15 kts | 45° |
| 2026-05-05 09:20 | 34.87550 | 33.62247 | 17 ft | 18 kts | 45° |
| 2026-05-05 09:20 | 34.87647 | 33.62364 | 18 ft | 20 kts | 45° |
| 2026-05-05 09:20 | 34.87741 | 33.62481 | 18 ft | 18 kts | 45° |
| 2026-05-05 09:21 | 34.87829 | 33.62588 | 19 ft | 18 kts | 45° |
| 2026-05-05 09:21 | 34.87917 | 33.62694 | 21 ft | 13 kts | 46° |
| 2026-05-05 09:21 | 34.87960 | 33.62777 | 21 ft | 11 kts | 102° |
| 2026-05-05 09:21 | 34.87910 | 33.62846 | 22 ft | 11 kts | 137° |
| 2026-05-05 09:22 | 34.87869 | 33.62894 | 21 ft | 13 kts | 136° |
| 2026-05-05 09:22 | 34.87815 | 33.62926 | 21 ft | 7 kts | 194° |
| 2026-05-05 09:22 | 34.87805 | 33.62916 | 21 ft | 0 kts | 223° |
| 2026-05-05 09:22 | 34.87782 | 33.62889 | 21 ft | 27 kts | 224° |
| 2026-05-05 09:23 | 34.87455 | 33.62491 | 15 ft | 101 kts | 225° |
| 2026-05-05 09:23 | 34.86823 | 33.61720 | 20 ft | 154 kts | 225° |
| 2026-05-05 09:23 | 34.86022 | 33.60737 | 463 ft | 167 kts | 228° |
| 2026-05-05 09:23 | 34.85225 | 33.59690 | 1184 ft | 169 kts | 230° |
| 2026-05-05 09:24 | 34.84408 | 33.58579 | 1565 ft | 188 kts | 231° |
| 2026-05-05 09:24 | 34.83497 | 33.57329 | 1895 ft | 206 kts | 232° |
| 2026-05-05 09:24 | 34.82472 | 33.55956 | 2225 ft | 231 kts | 231° |
| 2026-05-05 09:24 | 34.81321 | 33.54481 | 2657 ft | 254 kts | 229° |
| 2026-05-05 09:25 | 34.80074 | 33.52903 | 3447 ft | 261 kts | 229° |
| 2026-05-05 09:25 | 34.78807 | 33.51306 | 4403 ft | 264 kts | 228° |
| 2026-05-05 09:25 | 34.77528 | 33.49694 | 5399 ft | 265 kts | 229° |
| 2026-05-05 09:25 | 34.76245 | 33.48072 | 6291 ft | 268 kts | 229° |
| 2026-05-05 09:26 | 34.74946 | 33.46423 | 7122 ft | 271 kts | 229° |
| 2026-05-05 09:26 | 34.73637 | 33.44759 | 7999 ft | 273 kts | 229° |
| 2026-05-05 09:26 | 34.72317 | 33.43079 | 8854 ft | 276 kts | 229° |
| 2026-05-05 09:26 | 34.70983 | 33.41382 | 9706 ft | 278 kts | 229° |
| 2026-05-05 09:27 | 34.69671 | 33.39624 | 10341 ft | 286 kts | 237° |
| 2026-05-05 09:27 | 34.68715 | 33.37460 | 10547 ft | 304 kts | 252° |
| 2026-05-05 09:27 | 34.68191 | 33.34886 | 10739 ft | 322 kts | 265° |
| 2026-05-05 09:27 | 34.68135 | 33.32134 | 11257 ft | 328 kts | 275° |
| 2026-05-05 09:28 | 34.68275 | 33.29359 | 11923 ft | 331 kts | 275° |
| 2026-05-05 09:28 | 34.68388 | 33.26547 | 12634 ft | 333 kts | 275° |
| 2026-05-05 09:28 | 34.68489 | 33.23728 | 13353 ft | 335 kts | 275° |
| 2026-05-05 09:28 | 34.68586 | 33.20924 | 14034 ft | 337 kts | 275° |
| 2026-05-05 09:29 | 34.68684 | 33.18078 | 14682 ft | 338 kts | 275° |
| 2026-05-05 09:29 | 34.68788 | 33.15221 | 15335 ft | 338 kts | 276° |
| 2026-05-05 09:29 | 34.68897 | 33.12359 | 15934 ft | 339 kts | 276° |
| 2026-05-05 09:29 | 34.69011 | 33.09498 | 16596 ft | 339 kts | 276° |
| 2026-05-05 09:30 | 34.69125 | 33.06637 | 17270 ft | 339 kts | 276° |
| 2026-05-05 09:30 | 34.69238 | 33.03774 | 17943 ft | 339 kts | 276° |
| 2026-05-05 09:30 | 34.69352 | 33.00909 | 18552 ft | 340 kts | 276° |
| 2026-05-05 09:30 | 34.69461 | 32.98064 | 19093 ft | 341 kts | 277° |
| 2026-05-05 09:31 | 34.69569 | 32.95173 | 19620 ft | 343 kts | 277° |
| 2026-05-05 09:31 | 34.69677 | 32.92255 | 20139 ft | 346 kts | 277° |
| 2026-05-05 09:31 | 34.69788 | 32.89321 | 20639 ft | 349 kts | 277° |
| 2026-05-05 09:31 | 34.69901 | 32.86357 | 21069 ft | 352 kts | 278° |
| 2026-05-05 09:32 | 34.70015 | 32.83364 | 21475 ft | 356 kts | 278° |
| 2026-05-05 09:32 | 34.70126 | 32.80342 | 21921 ft | 360 kts | 278° |
| 2026-05-05 09:32 | 34.70238 | 32.77297 | 22395 ft | 362 kts | 278° |
| 2026-05-05 09:32 | 34.70349 | 32.74234 | 22866 ft | 364 kts | 278° |
| 2026-05-05 09:33 | 34.70458 | 32.71191 | 23307 ft | 366 kts | 278° |
| 2026-05-05 09:33 | 34.70570 | 32.68088 | 23703 ft | 369 kts | 278° |
| 2026-05-05 09:33 | 34.70684 | 32.64963 | 24085 ft | 371 kts | 278° |
| 2026-05-05 09:33 | 34.70797 | 32.61808 | 24421 ft | 373 kts | 278° |
| 2026-05-05 09:34 | 34.70909 | 32.58648 | 24725 ft | 377 kts | 278° |
| 2026-05-05 09:34 | 34.71022 | 32.55441 | 25048 ft | 380 kts | 278° |
| 2026-05-05 09:34 | 34.71132 | 32.52218 | 25402 ft | 383 kts | 278° |
| 2026-05-05 09:34 | 34.71108 | 32.48954 | 25754 ft | 389 kts | 272° |
| 2026-05-05 09:35 | 34.70933 | 32.45702 | 26110 ft | 391 kts | 272° |
| 2026-05-05 09:35 | 34.70576 | 32.39076 | 26844 ft | 394 kts | 272° |
| 2026-05-05 09:35 | 34.70398 | 32.35742 | 27170 ft | 396 kts | 271° |
| 2026-05-05 09:36 | 34.70220 | 32.32382 | 27451 ft | 400 kts | 271° |
| 2026-05-05 09:36 | 34.70039 | 32.28989 | 27727 ft | 404 kts | 271° |
| 2026-05-05 09:36 | 34.69855 | 32.25570 | 28062 ft | 407 kts | 271° |
| 2026-05-05 09:36 | 34.69668 | 32.22119 | 28401 ft | 409 kts | 271° |
| 2026-05-05 09:37 | 34.69481 | 32.18709 | 28841 ft | 408 kts | 271° |
| 2026-05-05 09:37 | 34.69290 | 32.15277 | 29358 ft | 406 kts | 271° |
| 2026-05-05 09:37 | 34.69100 | 32.11847 | 29877 ft | 404 kts | 271° |
| 2026-05-05 09:37 | 34.68913 | 32.08444 | 30339 ft | 403 kts | 271° |
| 2026-05-05 09:38 | 34.68726 | 32.05049 | 30751 ft | 402 kts | 271° |
| 2026-05-05 09:38 | 34.68535 | 32.01648 | 31139 ft | 402 kts | 270° |
| 2026-05-05 09:38 | 34.68343 | 31.98266 | 31559 ft | 401 kts | 270° |
| 2026-05-05 09:38 | 34.68169 | 31.94941 | 31978 ft | 398 kts | 273° |
| 2026-05-05 09:39 | 34.68351 | 31.91607 | 32406 ft | 392 kts | 283° |
| 2026-05-05 09:39 | 34.69033 | 31.88421 | 32828 ft | 388 kts | 292° |
| 2026-05-05 09:39 | 34.70173 | 31.85448 | 33251 ft | 386 kts | 301° |
| 2026-05-05 09:39 | 34.71546 | 31.82647 | 33670 ft | 385 kts | 301° |
| 2026-05-05 09:40 | 34.72917 | 31.79843 | 34080 ft | 385 kts | 301° |
| 2026-05-05 09:40 | 34.74265 | 31.77074 | 34398 ft | 385 kts | 300° |
| 2026-05-05 09:40 | 34.75626 | 31.74272 | 34685 ft | 385 kts | 300° |
| 2026-05-05 09:40 | 34.76989 | 31.71466 | 34963 ft | 386 kts | 300° |
| 2026-05-05 09:41 | 34.78353 | 31.68656 | 35243 ft | 386 kts | 300° |
| 2026-05-05 09:41 | 34.79719 | 31.65837 | 35518 ft | 386 kts | 300° |
| 2026-05-05 09:41 | 34.81083 | 31.63021 | 35796 ft | 386 kts | 300° |
| 2026-05-05 09:41 | 34.82454 | 31.60188 | 35967 ft | 388 kts | 300° |
| 2026-05-05 09:42 | 34.85229 | 31.54453 | 36011 ft | 396 kts | 300° |
| 2026-05-05 09:42 | 34.88018 | 31.48686 | 36007 ft | 399 kts | 300° |
| 2026-05-05 09:43 | 34.90839 | 31.42849 | 36011 ft | 399 kts | 300° |
| 2026-05-05 09:43 | 34.93650 | 31.37014 | 36009 ft | 399 kts | 300° |
| 2026-05-05 09:44 | 34.96464 | 31.31164 | 36009 ft | 399 kts | 300° |
| 2026-05-05 09:44 | 34.99273 | 31.25319 | 36015 ft | 399 kts | 300° |
| 2026-05-05 09:45 | 35.02061 | 31.19493 | 36007 ft | 400 kts | 300° |
| 2026-05-05 09:45 | 35.04868 | 31.13624 | 36013 ft | 400 kts | 300° |
| 2026-05-05 09:46 | 35.07683 | 31.07747 | 36008 ft | 400 kts | 300° |
| 2026-05-05 09:46 | 35.10493 | 31.01867 | 36034 ft | 401 kts | 300° |
| 2026-05-05 09:47 | 35.13278 | 30.96012 | 36032 ft | 401 kts | 300° |
| 2026-05-05 09:47 | 35.16072 | 30.90124 | 36019 ft | 401 kts | 300° |
| 2026-05-05 09:48 | 35.19268 | 30.84545 | 36015 ft | 402 kts | 312° |
| 2026-05-05 09:48 | 35.23107 | 30.79557 | 36016 ft | 403 kts | 311° |
| 2026-05-05 09:49 | 35.26952 | 30.74551 | 36020 ft | 403 kts | 311° |
| 2026-05-05 09:49 | 35.30783 | 30.69542 | 36020 ft | 403 kts | 311° |
| 2026-05-05 09:50 | 35.34614 | 30.64521 | 36015 ft | 403 kts | 311° |
| 2026-05-05 09:50 | 35.38418 | 30.59523 | 36015 ft | 404 kts | 311° |
| 2026-05-05 09:51 | 35.42254 | 30.54482 | 36018 ft | 403 kts | 311° |
| 2026-05-05 09:51 | 35.46083 | 30.49442 | 36017 ft | 404 kts | 311° |
| 2026-05-05 09:52 | 35.49886 | 30.44422 | 36042 ft | 404 kts | 311° |
| 2026-05-05 09:52 | 35.53709 | 30.39373 | 36018 ft | 404 kts | 311° |
| 2026-05-05 09:53 | 35.57543 | 30.34306 | 36003 ft | 404 kts | 311° |
| 2026-05-05 09:53 | 35.61369 | 30.29241 | 36003 ft | 404 kts | 311° |
| 2026-05-05 09:54 | 35.65176 | 30.24196 | 36004 ft | 405 kts | 311° |
| 2026-05-05 09:54 | 35.68997 | 30.19112 | 36003 ft | 405 kts | 311° |
| 2026-05-05 09:55 | 35.72817 | 30.14023 | 36009 ft | 405 kts | 311° |
| 2026-05-05 09:55 | 35.76641 | 30.08932 | 36006 ft | 405 kts | 311° |
| 2026-05-05 09:56 | 35.80466 | 30.03835 | 35999 ft | 405 kts | 311° |
| 2026-05-05 09:56 | 35.83711 | 29.98193 | 36013 ft | 405 kts | 295° |
| 2026-05-05 09:57 | 35.85605 | 29.91636 | 36009 ft | 406 kts | 290° |
| 2026-05-05 09:57 | 35.87397 | 29.85016 | 36011 ft | 407 kts | 290° |
| 2026-05-05 09:58 | 35.89187 | 29.78439 | 36016 ft | 407 kts | 290° |
| 2026-05-05 09:58 | 35.90982 | 29.71801 | 36009 ft | 408 kts | 289° |
| 2026-05-05 09:59 | 35.92768 | 29.65164 | 36012 ft | 407 kts | 289° |
| 2026-05-05 09:59 | 35.94549 | 29.58526 | 36017 ft | 408 kts | 289° |
| 2026-05-05 10:00 | 35.96332 | 29.51880 | 36013 ft | 408 kts | 289° |
| 2026-05-05 10:00 | 35.98119 | 29.45234 | 36012 ft | 408 kts | 289° |
| 2026-05-05 10:01 | 35.99914 | 29.38580 | 36020 ft | 408 kts | 289° |
| 2026-05-05 10:01 | 36.01690 | 29.31966 | 36017 ft | 409 kts | 289° |
| 2026-05-05 10:02 | 36.03472 | 29.25293 | 36022 ft | 409 kts | 289° |
| 2026-05-05 10:02 | 36.05251 | 29.18615 | 36013 ft | 410 kts | 289° |
| 2026-05-05 10:03 | 36.07043 | 29.11878 | 36019 ft | 410 kts | 289° |
| 2026-05-05 10:03 | 36.08806 | 29.05216 | 36022 ft | 410 kts | 289° |
| 2026-05-05 10:04 | 36.10576 | 28.98505 | 36027 ft | 410 kts | 289° |
| 2026-05-05 10:04 | 36.12347 | 28.91801 | 36025 ft | 411 kts | 289° |
| 2026-05-05 10:05 | 36.14118 | 28.85076 | 36024 ft | 411 kts | 289° |
| 2026-05-05 10:05 | 36.15884 | 28.78350 | 36026 ft | 411 kts | 289° |
| 2026-05-05 10:06 | 36.17649 | 28.71622 | 36031 ft | 411 kts | 289° |
| 2026-05-05 10:06 | 36.19396 | 28.64931 | 36020 ft | 411 kts | 289° |
| 2026-05-05 10:07 | 36.21147 | 28.58191 | 36024 ft | 411 kts | 289° |
| 2026-05-05 10:07 | 36.22898 | 28.51438 | 36033 ft | 412 kts | 289° |
| 2026-05-05 10:08 | 36.24647 | 28.44687 | 36035 ft | 412 kts | 289° |
| 2026-05-05 10:08 | 36.26392 | 28.37935 | 36038 ft | 411 kts | 289° |
| 2026-05-05 10:09 | 36.28130 | 28.31173 | 36034 ft | 411 kts | 289° |
| 2026-05-05 10:09 | 36.29855 | 28.24410 | 36039 ft | 411 kts | 289° |
| 2026-05-05 10:10 | 36.31285 | 28.18794 | 36039 ft | 411 kts | 289° |
| 2026-05-05 10:10 | 36.33291 | 28.10928 | 36015 ft | 411 kts | 289° |
| 2026-05-05 10:11 | 36.35368 | 28.04357 | 36003 ft | 409 kts | 295° |
| 2026-05-05 10:11 | 36.37319 | 27.98949 | 36004 ft | 409 kts | 295° |
| 2026-05-05 10:12 | 36.39643 | 27.92493 | 36009 ft | 409 kts | 295° |
| 2026-05-05 10:12 | 36.41941 | 27.86061 | 36018 ft | 410 kts | 295° |
| 2026-05-05 10:13 | 36.44246 | 27.79578 | 36028 ft | 410 kts | 295° |
| 2026-05-05 10:13 | 36.46556 | 27.73079 | 36036 ft | 410 kts | 295° |
| 2026-05-05 10:14 | 36.48849 | 27.66646 | 36050 ft | 410 kts | 295° |
| 2026-05-05 10:14 | 36.51159 | 27.60161 | 36053 ft | 410 kts | 295° |
| 2026-05-05 10:15 | 36.53465 | 27.53659 | 36060 ft | 410 kts | 295° |
| 2026-05-05 10:15 | 36.55762 | 27.47159 | 36060 ft | 410 kts | 295° |
| 2026-05-05 10:16 | 36.58052 | 27.40662 | 36064 ft | 410 kts | 295° |
| 2026-05-05 10:16 | 36.60325 | 27.34198 | 36072 ft | 410 kts | 295° |
| 2026-05-05 10:17 | 36.62614 | 27.27681 | 36076 ft | 410 kts | 295° |
| 2026-05-05 10:17 | 36.64888 | 27.21177 | 36078 ft | 410 kts | 295° |
| 2026-05-05 10:18 | 36.67162 | 27.14659 | 36063 ft | 410 kts | 295° |
| 2026-05-05 10:18 | 36.69420 | 27.08188 | 36066 ft | 409 kts | 295° |
| 2026-05-05 10:19 | 36.71689 | 27.01680 | 36067 ft | 409 kts | 295° |
| 2026-05-05 10:19 | 36.73946 | 26.95183 | 36070 ft | 409 kts | 295° |
| 2026-05-05 10:20 | 36.76207 | 26.88664 | 36070 ft | 409 kts | 295° |
| 2026-05-05 10:20 | 36.78459 | 26.82147 | 36071 ft | 409 kts | 295° |
| 2026-05-05 10:21 | 36.80707 | 26.75620 | 36083 ft | 409 kts | 295° |
| 2026-05-05 10:21 | 36.82926 | 26.69144 | 36095 ft | 409 kts | 295° |
| 2026-05-05 10:22 | 36.85165 | 26.62619 | 36102 ft | 408 kts | 295° |
| 2026-05-05 10:22 | 36.87402 | 26.56100 | 36090 ft | 408 kts | 295° |
| 2026-05-05 10:23 | 36.89635 | 26.49578 | 36102 ft | 408 kts | 295° |
| 2026-05-05 10:23 | 36.91865 | 26.43044 | 36107 ft | 408 kts | 295° |
| 2026-05-05 10:24 | 36.94092 | 26.36505 | 36112 ft | 408 kts | 295° |
| 2026-05-05 10:24 | 36.96305 | 26.29959 | 36111 ft | 408 kts | 295° |
| 2026-05-05 10:25 | 36.98496 | 26.23465 | 36098 ft | 408 kts | 295° |
| 2026-05-05 10:25 | 37.00725 | 26.16917 | 36105 ft | 408 kts | 295° |
| 2026-05-05 10:26 | 37.02948 | 26.10373 | 36123 ft | 408 kts | 295° |
| 2026-05-05 10:26 | 37.05166 | 26.03823 | 36118 ft | 409 kts | 295° |
| 2026-05-05 10:27 | 37.07383 | 25.97252 | 36126 ft | 410 kts | 295° |
| 2026-05-05 10:27 | 37.09602 | 25.90666 | 36125 ft | 410 kts | 295° |
| 2026-05-05 10:28 | 37.11794 | 25.84132 | 36129 ft | 409 kts | 295° |
| 2026-05-05 10:28 | 37.14001 | 25.77541 | 36130 ft | 409 kts | 295° |
| 2026-05-05 10:29 | 37.16183 | 25.71005 | 36131 ft | 408 kts | 295° |
| 2026-05-05 10:29 | 37.18382 | 25.64436 | 36046 ft | 407 kts | 295° |
| 2026-05-05 10:30 | 37.19471 | 25.61170 | 35467 ft | 406 kts | 295° |
| 2026-05-05 10:30 | 37.20558 | 25.57901 | 34849 ft | 406 kts | 296° |
| 2026-05-05 10:30 | 37.21643 | 25.54626 | 34226 ft | 407 kts | 296° |
| 2026-05-05 10:30 | 37.22732 | 25.51337 | 33509 ft | 408 kts | 296° |
| 2026-05-05 10:31 | 37.23816 | 25.48041 | 32744 ft | 409 kts | 295° |
| 2026-05-05 10:31 | 37.24891 | 25.44716 | 31962 ft | 411 kts | 295° |
| 2026-05-05 10:31 | 37.25960 | 25.41375 | 31172 ft | 413 kts | 295° |
| 2026-05-05 10:31 | 37.27016 | 25.38062 | 30356 ft | 415 kts | 295° |
| 2026-05-05 10:32 | 37.28075 | 25.34674 | 29453 ft | 418 kts | 294° |
| 2026-05-05 10:32 | 37.29052 | 25.31250 | 28766 ft | 415 kts | 292° |
| 2026-05-05 10:32 | 37.29965 | 25.27817 | 28070 ft | 412 kts | 291° |
| 2026-05-05 10:32 | 37.30844 | 25.24406 | 27401 ft | 409 kts | 290° |
| 2026-05-05 10:33 | 37.31714 | 25.21019 | 26747 ft | 406 kts | 290° |
| 2026-05-05 10:33 | 37.32590 | 25.17646 | 26089 ft | 403 kts | 290° |
| 2026-05-05 10:33 | 37.33470 | 25.14300 | 25468 ft | 400 kts | 290° |
| 2026-05-05 10:33 | 37.34337 | 25.11040 | 24864 ft | 398 kts | 290° |
| 2026-05-05 10:34 | 37.35215 | 25.07753 | 24248 ft | 395 kts | 289° |
| 2026-05-05 10:34 | 37.36090 | 25.04479 | 23646 ft | 393 kts | 289° |
| 2026-05-05 10:34 | 37.36960 | 25.01223 | 22964 ft | 391 kts | 289° |
| 2026-05-05 10:34 | 37.37820 | 24.98002 | 22376 ft | 386 kts | 290° |
| 2026-05-05 10:35 | 37.38672 | 24.94815 | 21812 ft | 382 kts | 290° |
| 2026-05-05 10:35 | 37.39511 | 24.91666 | 21243 ft | 378 kts | 290° |
| 2026-05-05 10:35 | 37.40342 | 24.88539 | 20693 ft | 376 kts | 290° |
| 2026-05-05 10:35 | 37.41166 | 24.85428 | 20162 ft | 373 kts | 290° |
| 2026-05-05 10:36 | 37.41969 | 24.82383 | 19645 ft | 370 kts | 290° |
| 2026-05-05 10:36 | 37.42778 | 24.79315 | 19112 ft | 367 kts | 290° |
| 2026-05-05 10:36 | 37.43581 | 24.76275 | 18591 ft | 365 kts | 290° |
| 2026-05-05 10:36 | 37.44379 | 24.73253 | 18009 ft | 362 kts | 290° |
| 2026-05-05 10:37 | 37.45169 | 24.70252 | 17409 ft | 360 kts | 290° |
| 2026-05-05 10:37 | 37.45956 | 24.67263 | 16798 ft | 358 kts | 290° |
| 2026-05-05 10:37 | 37.46736 | 24.64293 | 16193 ft | 356 kts | 290° |
| 2026-05-05 10:37 | 37.47512 | 24.61340 | 15598 ft | 355 kts | 290° |
| 2026-05-05 10:38 | 37.48286 | 24.58392 | 15019 ft | 353 kts | 290° |
| 2026-05-05 10:38 | 37.49046 | 24.55497 | 14463 ft | 352 kts | 290° |
| 2026-05-05 10:38 | 37.49809 | 24.52577 | 13900 ft | 350 kts | 291° |
| 2026-05-05 10:38 | 37.50568 | 24.49663 | 13280 ft | 349 kts | 291° |
| 2026-05-05 10:39 | 37.51320 | 24.46770 | 12682 ft | 346 kts | 291° |
| 2026-05-05 10:39 | 37.52072 | 24.43891 | 12095 ft | 344 kts | 291° |
| 2026-05-05 10:39 | 37.52820 | 24.41029 | 11538 ft | 342 kts | 291° |
| 2026-05-05 10:39 | 37.53559 | 24.38188 | 10967 ft | 340 kts | 291° |
| 2026-05-05 10:40 | 37.54283 | 24.35394 | 10460 ft | 338 kts | 290° |
| 2026-05-05 10:40 | 37.55009 | 24.32590 | 9951 ft | 336 kts | 290° |
| 2026-05-05 10:40 | 37.55771 | 24.29867 | 9780 ft | 319 kts | 296° |
| 2026-05-05 10:40 | 37.56756 | 24.27505 | 9642 ft | 293 kts | 302° |
| 2026-05-05 10:41 | 37.57726 | 24.25329 | 9293 ft | 279 kts | 302° |
| 2026-05-05 10:41 | 37.58679 | 24.23195 | 8944 ft | 277 kts | 302° |
| 2026-05-05 10:41 | 37.59620 | 24.21089 | 8638 ft | 274 kts | 302° |
| 2026-05-05 10:41 | 37.60554 | 24.19001 | 8316 ft | 273 kts | 302° |
| 2026-05-05 10:42 | 37.62393 | 24.14877 | 7689 ft | 269 kts | 302° |
| 2026-05-05 10:42 | 37.63308 | 24.12817 | 7380 ft | 268 kts | 302° |
| 2026-05-05 10:42 | 37.64216 | 24.10774 | 7067 ft | 266 kts | 302° |
| 2026-05-05 10:43 | 37.65119 | 24.08738 | 6756 ft | 265 kts | 302° |
| 2026-05-05 10:43 | 37.66016 | 24.06711 | 6448 ft | 264 kts | 302° |
| 2026-05-05 10:43 | 37.66911 | 24.04691 | 6090 ft | 264 kts | 301° |
| 2026-05-05 10:43 | 37.67791 | 24.02702 | 5914 ft | 251 kts | 301° |
| 2026-05-05 10:44 | 37.68612 | 24.00843 | 5787 ft | 235 kts | 301° |
| 2026-05-05 10:44 | 37.69398 | 23.99067 | 5643 ft | 227 kts | 301° |
| 2026-05-05 10:44 | 37.70156 | 23.97355 | 5486 ft | 221 kts | 301° |
| 2026-05-05 10:44 | 37.70900 | 23.95675 | 5235 ft | 219 kts | 301° |
| 2026-05-05 10:45 | 37.71629 | 23.94021 | 4983 ft | 217 kts | 300° |
| 2026-05-05 10:45 | 37.72359 | 23.92359 | 4789 ft | 216 kts | 300° |
| 2026-05-05 10:45 | 37.73088 | 23.90703 | 4609 ft | 215 kts | 300° |
| 2026-05-05 10:45 | 37.73808 | 23.89065 | 4429 ft | 210 kts | 300° |
| 2026-05-05 10:46 | 37.74503 | 23.87484 | 4242 ft | 201 kts | 300° |
| 2026-05-05 10:46 | 37.75161 | 23.85984 | 4090 ft | 188 kts | 300° |
| 2026-05-05 10:46 | 37.75786 | 23.84565 | 3914 ft | 183 kts | 300° |
| 2026-05-05 10:46 | 37.76405 | 23.83163 | 3737 ft | 183 kts | 300° |
| 2026-05-05 10:47 | 37.77024 | 23.81762 | 3563 ft | 182 kts | 300° |
| 2026-05-05 10:47 | 37.77853 | 23.80604 | 3426 ft | 181 kts | 328° |
| 2026-05-05 10:47 | 37.79061 | 23.80165 | 3332 ft | 185 kts | 359° |
| 2026-05-05 10:47 | 37.80284 | 23.80635 | 3169 ft | 189 kts | 31° |
| 2026-05-05 10:48 | 37.81344 | 23.81626 | 2943 ft | 190 kts | 34° |
| 2026-05-05 10:48 | 37.82400 | 23.82635 | 2706 ft | 191 kts | 35° |
| 2026-05-05 10:48 | 37.83472 | 23.83652 | 2450 ft | 193 kts | 34° |
| 2026-05-05 10:48 | 37.84546 | 23.84671 | 2187 ft | 192 kts | 34° |
| 2026-05-05 10:49 | 37.85598 | 23.85670 | 1947 ft | 183 kts | 34° |
| 2026-05-05 10:49 | 37.86558 | 23.86581 | 1704 ft | 160 kts | 34° |
| 2026-05-05 10:49 | 37.87428 | 23.87399 | 1476 ft | 152 kts | 35° |
| 2026-05-05 10:49 | 37.88265 | 23.88182 | 1268 ft | 149 kts | 35° |
| 2026-05-05 10:50 | 37.89082 | 23.88962 | 1068 ft | 145 kts | 36° |
| 2026-05-05 10:50 | 37.89866 | 23.89709 | 922 ft | 141 kts | 38° |
| 2026-05-05 10:50 | 37.90651 | 23.90459 | 746 ft | 140 kts | 38° |
| 2026-05-05 10:50 | 37.91420 | 23.91192 | 539 ft | 139 kts | 41° |
| 2026-05-05 10:51 | 37.92187 | 23.91924 | 394 ft | 138 kts | 41° |
| 2026-05-05 10:51 | 37.92939 | 23.92639 | 301 ft | 125 kts | 40° |
| 2026-05-05 10:51 | 37.93531 | 23.93206 | 292 ft | 88 kts | 37° |
| 2026-05-05 10:51 | 37.93827 | 23.93483 | 295 ft | 20 kts | 38° |
| 2026-05-05 10:52 | 37.93897 | 23.93602 | 296 ft | 18 kts | 57° |
| 2026-05-05 10:52 | 37.93954 | 23.93760 | 297 ft | 22 kts | 67° |
| 2026-05-05 10:52 | 37.94026 | 23.93948 | 300 ft | 25 kts | 49° |
| 2026-05-05 10:52 | 37.94167 | 23.94086 | 301 ft | 26 kts | 37° |
| 2026-05-05 10:53 | 37.94319 | 23.94231 | 304 ft | 28 kts | 37° |
| 2026-05-05 10:53 | 37.94480 | 23.94383 | 302 ft | 29 kts | 37° |
| 2026-05-05 10:53 | 37.94626 | 23.94521 | 304 ft | 26 kts | 37° |
| 2026-05-05 10:53 | 37.94678 | 23.94640 | 303 ft | 17 kts | 120° |
| 2026-05-05 10:54 | 37.94600 | 23.94768 | 301 ft | 20 kts | 127° |
| 2026-05-05 10:54 | 37.94513 | 23.94916 | 302 ft | 22 kts | 127° |
| 2026-05-05 10:54 | 37.94415 | 23.95080 | 303 ft | 24 kts | 127° |
| 2026-05-05 10:54 | 37.94314 | 23.95250 | 301 ft | 16 kts | 127° |
| 2026-05-05 10:55 | 37.94271 | 23.95278 | 301 ft | 7 kts | 193° |
| 2026-05-05 10:55 | 37.94226 | 23.95238 | 302 ft | 9 kts | 216° |
| 2026-05-05 10:55 | 37.94207 | 23.95220 | 302 ft | 0 kts | 216° |